Walum, North Dakota
Current Conditions -  °F | °C
As of 3:15 PM on Sunday 23 Nov 2014 (Local Time) from KBAC Reporting Station
Light Snow Light Snow  
Wind Chill: -10°   Ceiling: 2100
Heat Index: -3°   Visibility: 10mi
Dew Point: -6°   Wind: 17mph
Humidity: 80%   Direction: 290°WNW
Pressure: 29.47"   Gusts: 35mph
Location:  47.2843°N, 98.1073°W
Report Text: KBAC 232115Z AUTO 29015G30KT 10SM -SN BKN021 OVC042 M03/M06 A2947 RMK AO2
Loading
Personal Weather Stations






























Interactive Weather Map New forecast layout! Learn more

10-Day Weather Forecast

Advertisements
Track Severe Weather on mobile